Time;durP1;ratioP1;P1;durP2;ratioP2;P2;SDS_P1;SDS_P2;PMS_P1;PMS_P2;Temp;Humidity;BMP_temperature;BMP_pressure;BME280_temperature;BME280_humidity;BME280_pressure;Samples;Min_cycle;Max_cycle;Signal;HPM_P1;HPM_P2
2023/07/09 00:02:03;;;;;;;5.00;2.50;;;;;;;17.32;100.00;99504.13;104544;1253;61655;-58
2023/07/09 00:04:29;;;;;;;3.90;2.70;;;;;;;17.32;100.00;99502.84;104466;1264;60831;-58
2023/07/09 00:07:01;;;;;;;2.30;2.10;;;;;;;17.32;100.00;99503.05;104364;1251;74195;-58
2023/07/09 00:09:28;;;;;;;4.00;2.30;;;;;;;17.31;100.00;99496.05;104362;1256;69123;-59
2023/07/09 00:11:54;;;;;;;5.30;2.70;;;;;;;17.28;100.00;99493.56;104376;1267;72798;-58
2023/07/09 00:14:22;;;;;;;5.10;2.40;;;;;;;17.27;100.00;99492.77;104474;1251;61532;-58
2023/07/09 00:16:49;;;;;;;3.20;2.80;;;;;;;17.26;100.00;99494.60;104350;1257;60569;-58
2023/07/09 00:19:18;;;;;;;6.30;2.20;;;;;;;17.24;100.00;99490.88;104575;1267;73679;-59
2023/07/09 00:21:52;;;;;;;4.00;2.80;;;;;;;17.24;100.00;99490.66;104505;1251;69993;-58
2023/07/09 00:24:19;;;;;;;2.70;2.40;;;;;;;17.25;100.00;99488.86;104475;1257;72957;-58
2023/07/09 00:26:48;;;;;;;8.30;2.80;;;;;;;17.25;100.00;99484.97;104414;1267;62607;-57
2023/07/09 00:29:16;;;;;;;6.60;2.20;;;;;;;17.29;100.00;99488.38;104431;1267;60514;-58
2023/07/09 00:31:43;;;;;;;5.00;2.30;;;;;;;17.27;100.00;99488.55;104386;1257;74235;-58
2023/07/09 00:34:14;;;;;;;7.70;2.80;;;;;;;17.26;100.00;99488.21;104563;1256;69940;-58
2023/07/09 00:36:45;;;;;;;3.00;2.40;;;;;;;17.24;100.00;99484.48;104364;1256;72953;-58
2023/07/09 00:39:22;;;;;;;3.10;2.30;;;;;;;17.23;100.00;99482.26;104398;1257;61515;-58
2023/07/09 00:41:50;;;;;;;3.20;2.60;;;;;;;17.26;100.00;99479.77;108567;1251;60801;-59
2023/07/09 00:44:19;;;;;;;3.00;2.40;;;;;;;17.27;100.00;99478.26;108549;1251;74012;-58
2023/07/09 00:46:47;;;;;;;4.70;2.30;;;;;;;17.26;100.00;99477.46;107517;1251;69590;-59
2023/07/09 00:49:29;;;;;;;2.30;2.10;;;;;;;17.25;100.00;99477.84;108451;1251;72333;-59
2023/07/09 00:51:57;;;;;;;3.00;2.70;;;;;;;17.27;100.00;99475.61;107850;1251;62743;-58
2023/07/09 00:54:30;;;;;;;2.40;2.20;;;;;;;17.26;100.00;99478.27;104638;1251;60897;-59
2023/07/09 00:57:00;;;;;;;3.70;2.10;;;;;;;17.27;100.00;99478.08;104448;1256;72727;-57
2023/07/09 00:59:31;;;;;;;3.50;2.60;;;;;;;17.27;100.00;99481.41;104375;1251;69169;-57
2023/07/09 01:02:00;;;;;;;7.00;2.40;;;;;;;17.28;100.00;99483.10;104343;1270;72587;-58
2023/07/09 01:04:27;;;;;;;8.00;3.10;;;;;;;17.29;100.00;99483.45;104525;1254;61816;-60
2023/07/09 01:06:55;;;;;;;7.40;2.80;;;;;;;17.27;100.00;99481.23;104309;1256;60564;-58
2023/07/09 01:09:23;;;;;;;4.30;2.50;;;;;;;17.26;100.00;99478.11;104376;1257;74319;-58
2023/07/09 01:11:50;;;;;;;4.60;2.30;;;;;;;17.27;100.00;99476.49;104777;1251;70244;-58
2023/07/09 01:14:21;;;;;;;2.70;2.50;;;;;;;17.27;100.00;99477.23;104526;1256;72936;-59
2023/07/09 01:16:57;;;;;;;3.50;2.70;;;;;;;17.24;100.00;99474.05;104371;1256;61705;-58
2023/07/09 01:19:25;;;;;;;3.70;2.60;;;;;;;17.22;100.00;99478.48;104439;1251;60588;-58
2023/07/09 01:22:00;;;;;;;5.80;2.20;;;;;;;17.19;100.00;99478.27;104304;1267;74114;-59
2023/07/09 01:24:50;;;;;;;2.70;2.10;;;;;;;17.18;100.00;99479.64;104636;1260;69083;-59
2023/07/09 01:27:19;;;;;;;3.80;2.70;;;;;;;17.14;100.00;99481.14;104193;1257;72891;-60
2023/07/09 01:29:48;;;;;;;3.40;2.40;;;;;;;17.11;100.00;99486.11;104432;1254;61496;-60
2023/07/09 01:32:18;;;;;;;2.40;2.20;;;;;;;17.08;100.00;99484.39;104407;1254;60211;-59
2023/07/09 01:34:47;;;;;;;4.00;2.30;;;;;;;17.07;100.00;99481.65;106496;1252;72747;-60
2023/07/09 01:37:16;;;;;;;6.50;2.50;;;;;;;17.06;100.00;99483.27;104890;1256;69554;-58
2023/07/09 01:39:44;;;;;;;3.00;2.50;;;;;;;17.05;100.00;99485.13;104468;1270;72334;-58
2023/07/09 01:42:10;;;;;;;4.30;2.50;;;;;;;17.05;100.00;99483.73;104396;1252;61466;-58
2023/07/09 01:44:41;;;;;;;3.70;2.70;;;;;;;17.04;100.00;99488.27;104499;1270;59781;-58
2023/07/09 01:47:08;;;;;;;2.60;2.40;;;;;;;17.03;100.00;99493.63;104674;1253;75196;-58
2023/07/09 01:49:39;;;;;;;2.80;2.50;;;;;;;17.03;100.00;99491.84;104377;1256;70202;-59
2023/07/09 01:52:08;;;;;;;6.00;2.90;;;;;;;17.03;100.00;99491.12;104437;1256;72488;-58
2023/07/09 01:54:38;;;;;;;4.00;2.40;;;;;;;17.02;100.00;99494.03;104460;1257;61761;-58
2023/07/09 01:57:19;;;;;;;3.10;2.50;;;;;;;17.00;100.00;99497.57;104570;1260;59950;-59
2023/07/09 01:59:46;;;;;;;3.30;2.10;;;;;;;16.97;100.00;99498.84;104301;1255;72702;-58
2023/07/09 02:02:18;;;;;;;3.70;2.40;;;;;;;16.95;100.00;99496.13;104327;1253;70018;-58
2023/07/09 02:04:50;;;;;;;5.00;2.80;;;;;;;16.96;100.00;99496.83;104575;1257;72337;-58
2023/07/09 02:07:18;;;;;;;4.10;2.40;;;;;;;16.97;100.00;99500.96;104312;1252;61615;-58
2023/07/09 02:09:45;;;;;;;6.80;2.60;;;;;;;16.97;100.00;99503.08;104813;1253;60526;-58
2023/07/09 02:12:12;;;;;;;3.90;2.80;;;;;;;16.96;100.00;99502.14;104339;1269;73854;-58
2023/07/09 02:14:40;;;;;;;4.40;2.70;;;;;;;16.96;100.00;99502.45;106337;1251;69889;-58
2023/07/09 02:17:07;;;;;;;;;;;;;;;16.96;100.00;99504.80;105600;1251;72398;-58
2023/07/09 02:19:35;;;;;;;4.00;2.50;;;;;;;16.93;100.00;99510.11;105295;1254;61946;-58
2023/07/09 02:22:02;;;;;;;6.80;2.50;;;;;;;16.90;100.00;99512.77;104301;1269;59832;-57
2023/07/09 02:24:29;;;;;;;4.10;2.30;;;;;;;16.90;100.00;99517.73;104621;1269;73725;-58
2023/07/09 02:26:57;;;;;;;3.30;2.60;;;;;;;16.88;100.00;99515.23;104621;1251;69006;-59
2023/07/09 02:29:25;;;;;;;3.10;2.60;;;;;;;16.87;100.00;99517.98;104512;1254;72430;-58
2023/07/09 02:31:52;;;;;;;2.90;2.30;;;;;;;16.86;100.00;99518.91;104385;1251;61629;-58
2023/07/09 02:34:19;;;;;;;3.00;2.60;;;;;;;16.87;100.00;99518.48;104211;1256;60559;-58
2023/07/09 02:36:47;;;;;;;2.40;2.20;;;;;;;16.86;100.00;99519.63;104402;1251;73915;-57
2023/07/09 02:39:14;;;;;;;6.20;2.50;;;;;;;16.84;100.00;99519.75;106088;1251;69774;-60
2023/07/09 02:41:41;;;;;;;4.50;2.60;;;;;;;16.83;100.00;99522.34;108507;1251;71753;-59
2023/07/09 02:44:08;;;;;;;3.70;2.50;;;;;;;16.83;100.00;99521.05;104974;1256;60634;-59
2023/07/09 02:46:36;;;;;;;4.70;2.50;;;;;;;16.82;100.00;99523.41;104432;1251;60466;-58
2023/07/09 02:49:04;;;;;;;3.40;2.60;;;;;;;16.81;100.00;99524.40;105131;1254;74242;-59
2023/07/09 02:53:49;;;;;;;2.90;2.50;;;;;;;16.51;100.00;99528.71;101481;1291;601613;-59
2023/07/09 02:56:17;;;;;;;6.10;2.40;;;;;;;16.76;100.00;99525.45;103536;1271;60469;-59
2023/07/09 02:58:45;;;;;;;;;;;;;;;16.78;100.00;99522.33;103665;1271;60167;-58
2023/07/09 03:01:12;;;;;;;;;;;;;;;16.78;100.00;99523.51;103504;1272;70993;-58
2023/07/09 03:03:40;;;;;;;;;;;;;;;16.75;100.00;99519.86;103601;1278;69273;-58
2023/07/09 03:06:08;;;;;;;2.40;1.80;;;;;;;16.71;100.00;99521.86;103581;1271;73353;-58
2023/07/09 03:08:36;;;;;;;3.90;2.20;;;;;;;16.71;100.00;99521.67;103859;1263;153737;-59
2023/07/09 03:11:13;;;;;;;3.90;2.50;;;;;;;16.69;100.00;99521.81;103930;1263;59471;-59
2023/07/09 03:13:41;;;;;;;9.40;2.20;;;;;;;16.66;100.00;99516.59;103964;1268;72467;-58
2023/07/09 03:16:09;;;;;;;3.70;2.90;;;;;;;16.66;100.00;99520.08;103905;1268;68306;-58
2023/07/09 03:18:37;;;;;;;3.90;2.70;;;;;;;16.66;100.00;99517.79;104077;1268;73343;-58
2023/07/09 03:21:05;;;;;;;4.60;2.80;;;;;;;16.66;100.00;99518.88;103983;1267;61689;-58
2023/07/09 03:23:32;;;;;;;;;;;;;;;16.66;100.00;99514.11;103969;1263;59832;-59
2023/07/09 03:26:01;;;;;;;4.00;2.90;;;;;;;16.66;100.00;99513.55;103552;1283;73266;-58
2023/07/09 03:28:31;;;;;;;5.20;2.60;;;;;;;16.66;100.00;99513.22;103950;1261;68285;-58
2023/07/09 03:30:59;;;;;;;6.90;2.70;;;;;;;16.67;100.00;99514.88;104157;1263;72344;-61
2023/07/09 03:33:27;;;;;;;5.40;2.80;;;;;;;16.70;100.00;99513.95;103864;1263;62444;-59
2023/07/09 03:35:54;;;;;;;;;;;;;;;16.74;100.00;99510.71;103969;1263;60790;-58
2023/07/09 03:38:22;;;;;;;;;;;;;;;16.77;100.00;99511.38;103930;1269;73222;-58
2023/07/09 03:40:53;;;;;;;3.40;2.70;;;;;;;16.78;100.00;99512.02;103776;1276;69133;-57
2023/07/09 03:43:21;;;;;;;2.80;2.60;;;;;;;16.80;100.00;99511.20;103970;1265;71795;-58
2023/07/09 03:45:49;;;;;;;3.30;2.70;;;;;;;16.82;100.00;99510.88;104072;1266;61486;-60
2023/07/09 03:48:17;;;;;;;;;;;;;;;16.85;100.00;99511.92;103864;1268;59632;-58
2023/07/09 03:50:46;;;;;;;6.90;2.60;;;;;;;16.86;100.00;99508.11;104006;1280;73540;-57
2023/07/09 03:53:14;;;;;;;4.80;2.30;;;;;;;16.89;100.00;99508.08;103860;1281;69608;-58
2023/07/09 03:55:42;;;;;;;5.10;2.60;;;;;;;16.95;100.00;99511.89;103917;1263;72347;-60
2023/07/09 03:58:10;;;;;;;4.90;2.70;;;;;;;17.00;100.00;99516.48;103811;1264;61878;-57
2023/07/09 04:00:38;;;;;;;4.30;2.80;;;;;;;17.02;100.00;99515.83;103933;1268;60132;-57
2023/07/09 04:03:08;;;;;;;4.50;2.40;;;;;;;17.04;100.00;99519.77;103915;1270;73792;-60
2023/07/09 04:05:36;;;;;;;7.20;2.90;;;;;;;17.07;100.00;99525.74;103789;1269;69283;-60
2023/07/09 04:08:04;;;;;;;2.90;2.50;;;;;;;17.11;100.00;99520.30;103919;1268;72415;-57
2023/07/09 04:10:32;;;;;;;6.70;2.80;;;;;;;17.15;100.00;99521.80;103899;1268;60483;-58
2023/07/09 04:13:00;;;;;;;6.10;2.50;;;;;;;17.19;100.00;99521.50;104032;1266;59789;-57
2023/07/09 04:15:28;;;;;;;3.10;2.60;;;;;;;17.25;100.00;99516.80;103841;1269;72780;-61
2023/07/09 04:17:55;;;;;;;7.60;2.90;;;;;;;17.34;100.00;99516.22;103889;1278;69101;-59
2023/07/09 04:20:23;;;;;;;;;;;;;;;17.42;100.00;99512.60;103944;1268;72378;-59
2023/07/09 04:22:51;;;;;;;;;;;;;;;17.46;100.00;99508.89;103850;1268;60742;-58
2023/07/09 04:25:18;;;;;;;;;;;;;;;17.52;100.00;99512.58;103789;1263;60607;-58
2023/07/09 04:27:46;;;;;;;3.90;2.60;;;;;;;17.58;100.00;99510.58;103997;1268;71776;-58
2023/07/09 04:30:14;;;;;;;;;;;;;;;17.63;100.00;99508.55;103949;1275;69681;-59
2023/07/09 04:32:43;;;;;;;7.30;2.30;;;;;;;17.69;100.00;99502.95;103863;1268;72451;-58
2023/07/09 04:35:12;;;;;;;4.00;2.70;;;;;;;17.78;100.00;99508.57;103752;1268;61735;-58
2023/07/09 04:37:40;;;;;;;2.60;2.30;;;;;;;17.88;100.00;99509.41;103975;1265;60188;-58
2023/07/09 04:40:10;;;;;;;;;;;;;;;17.98;100.00;99511.16;104504;1263;73727;-58
2023/07/09 04:42:39;;;;;;;3.60;2.40;;;;;;;18.07;100.00;99514.50;107013;1263;69118;-59
2023/07/09 04:45:09;;;;;;;3.10;2.60;;;;;;;18.18;100.00;99512.67;105021;1268;72890;-58
2023/07/09 04:47:37;;;;;;;3.50;2.70;;;;;;;18.27;100.00;99512.48;104344;1263;61457;-58
2023/07/09 04:50:07;;;;;;;6.30;2.70;;;;;;;18.36;100.00;99514.79;104602;1262;59750;-58
2023/07/09 04:52:35;;;;;;;2.70;2.00;;;;;;;18.44;100.00;99509.19;104028;1263;72907;-58
2023/07/09 04:55:03;;;;;;;7.60;3.10;;;;;;;18.56;100.00;99511.68;103746;1266;69294;-59
2023/07/09 04:57:31;;;;;;;2.60;2.40;;;;;;;18.68;100.00;99514.45;103803;1281;71192;-59
2023/07/09 04:59:59;;;;;;;4.20;3.00;;;;;;;18.79;100.00;99514.16;103818;1280;62063;-59
2023/07/09 05:02:27;;;;;;;2.70;2.20;;;;;;;18.89;100.00;99509.43;103732;1268;59881;-59
2023/07/09 05:04:54;;;;;;;;;;;;;;;19.00;100.00;99509.16;103843;1269;73785;-59
2023/07/09 05:07:22;;;;;;;2.70;2.50;;;;;;;19.08;100.00;99504.77;103842;1268;68403;-60
2023/07/09 05:09:50;;;;;;;3.70;2.10;;;;;;;19.16;100.00;99505.02;103884;1266;72962;-58
2023/07/09 05:12:17;;;;;;;;;;;;;;;19.24;100.00;99508.75;103826;1271;61434;-59
2023/07/09 05:14:45;;;;;;;2.40;2.30;;;;;;;19.32;100.00;99503.86;103846;1274;59661;-57
2023/07/09 05:17:12;;;;;;;3.20;2.10;;;;;;;19.41;100.00;99501.19;104051;1263;73738;-58
2023/07/09 05:19:40;;;;;;;5.70;2.80;;;;;;;19.50;100.00;99497.80;104355;1253;69135;-57
2023/07/09 05:22:08;;;;;;;3.80;2.40;;;;;;;19.59;100.00;99497.55;104426;1263;72458;-57
2023/07/09 05:24:36;;;;;;;2.30;1.90;;;;;;;19.71;100.00;99495.14;104693;1259;61454;-57
2023/07/09 05:27:04;;;;;;;;;;;;;;;19.79;100.00;99497.69;104589;1257;59779;-57
2023/07/09 05:29:31;;;;;;;2.60;2.10;;;;;;;19.87;100.00;99495.34;104470;1256;72913;-57
2023/07/09 05:31:59;;;;;;;2.70;2.40;;;;;;;19.96;100.00;99496.33;104526;1253;69075;-57
2023/07/09 05:34:28;;;;;;;3.10;2.30;;;;;;;20.04;100.00;99494.90;104412;1257;72463;-57
2023/07/09 05:36:55;;;;;;;3.00;2.50;;;;;;;20.14;100.00;99496.23;104486;1257;61399;-56
2023/07/09 05:39:26;;;;;;;2.90;2.10;;;;;;;20.21;100.00;99498.47;104370;1253;59852;-57
2023/07/09 05:41:55;;;;;;;5.00;2.20;;;;;;;20.28;100.00;99495.73;104417;1258;72925;-58
2023/07/09 05:44:22;;;;;;;3.00;2.20;;;;;;;20.37;100.00;99499.97;104421;1269;69117;-58
2023/07/09 05:46:50;;;;;;;2.50;2.30;;;;;;;20.45;100.00;99496.02;104394;1265;72415;-60
2023/07/09 05:49:19;;;;;;;4.50;2.30;;;;;;;20.54;100.00;99497.61;104338;1259;61470;-58
2023/07/09 05:51:46;;;;;;;;;;;;;;;20.66;100.00;99498.17;104558;1257;60115;-57
2023/07/09 05:54:14;;;;;;;4.30;2.30;;;;;;;20.76;100.00;99500.20;104383;1269;71995;-57
2023/07/09 05:56:42;;;;;;;;;;;;;;;20.83;100.00;99498.88;104337;1265;69206;-57
2023/07/09 05:59:09;;;;;;;5.00;2.10;;;;;;;20.91;100.00;99499.77;104367;1258;73380;-57
2023/07/09 06:01:37;;;;;;;;;;;;;;;20.99;100.00;99505.42;104443;1256;61428;-58
2023/07/09 06:04:06;;;;;;;3.50;1.90;;;;;;;21.07;100.00;99505.27;104440;1253;59728;-59
2023/07/09 06:06:34;;;;;;;2.80;2.30;;;;;;;21.13;100.00;99501.02;104348;1253;71970;-58
2023/07/09 06:09:02;;;;;;;2.40;2.10;;;;;;;21.18;100.00;99505.02;104563;1253;70114;-58
2023/07/09 06:11:30;;;;;;;;;;;;;;;21.23;100.00;99502.08;104355;1255;72635;-58
2023/07/09 06:13:58;;;;;;;4.60;2.30;;;;;;;21.29;100.00;99502.81;104433;1258;61735;-58
2023/07/09 06:16:27;;;;;;;3.90;1.90;;;;;;;21.35;100.00;99504.36;104277;1253;59655;-58
2023/07/09 06:18:55;;;;;;;3.10;2.00;;;;;;;21.44;100.00;99505.60;104388;1260;73247;-57
2023/07/09 06:21:22;;;;;;;3.20;2.10;;;;;;;21.51;100.00;99500.48;104331;1269;70137;-57
2023/07/09 06:23:50;;;;;;;3.50;1.50;;;;;;;21.60;100.00;99498.06;104398;1260;73326;-56
2023/07/09 06:26:19;;;;;;;;;;;;;;;21.69;100.00;99497.10;104343;1273;61935;-56
2023/07/09 06:28:47;;;;;;;3.10;1.60;;;;;;;21.79;100.00;99491.89;104371;1258;59768;-56
2023/07/09 06:31:14;;;;;;;2.90;1.40;;;;;;;21.89;100.00;99489.55;104278;1253;73058;-56
2023/07/09 06:33:42;;;;;;;;;;;;;;;22.02;100.00;99489.59;104245;1259;69804;-56
2023/07/09 06:36:10;;;;;;;;;;;;;;;22.15;100.00;99486.44;104354;1253;72867;-57
2023/07/09 06:38:37;;;;;;;;;;;;;;;22.26;100.00;99489.89;104303;1258;60601;-58
2023/07/09 06:41:05;;;;;;;5.30;2.10;;;;;;;22.37;100.00;99482.36;104470;1257;59615;-57
2023/07/09 06:43:34;;;;;;;6.80;1.80;;;;;;;22.47;100.00;99482.92;108317;1253;72789;-57
2023/07/09 06:46:01;;;;;;;2.30;1.60;;;;;;;22.57;100.00;99481.43;107429;1253;70327;-57
2023/07/09 06:48:30;;;;;;;2.00;1.60;;;;;;;22.70;100.00;99476.58;104344;1267;72460;-58
2023/07/09 06:50:59;;;;;;;3.60;1.70;;;;;;;22.82;100.00;99466.88;105066;1255;61454;-57
2023/07/09 06:53:27;;;;;;;1.80;1.60;;;;;;;22.94;100.00;99463.94;104525;1258;59376;-57
2023/07/09 06:55:58;;;;;;;3.70;1.50;;;;;;;23.04;100.00;99464.78;104651;1259;73193;-58
2023/07/09 06:58:27;;;;;;;2.70;1.40;;;;;;;23.13;100.00;99463.49;104615;1259;69247;-57
2023/07/09 07:00:55;;;;;;;1.60;1.20;;;;;;;23.22;100.00;99463.73;104293;1275;72228;-57
2023/07/09 07:03:23;;;;;;;;;;;;;;;23.29;100.00;99458.59;104377;1259;60642;-58
2023/07/09 07:05:53;;;;;;;2.30;1.40;;;;;;;23.38;100.00;99457.00;104331;1258;60502;-57
2023/07/09 07:08:22;;;;;;;1.90;1.20;;;;;;;23.49;100.00;99457.64;104439;1276;73750;-56
2023/07/09 07:11:01;;;;;;;2.00;1.30;;;;;;;23.60;100.00;99457.25;104270;1259;69171;-56
2023/07/09 07:13:33;;;;;;;3.10;1.30;;;;;;;23.70;100.00;99453.19;104327;1260;72914;-56
2023/07/09 07:16:05;;;;;;;3.30;1.30;;;;;;;23.78;100.00;99457.95;104296;1259;60846;-57
2023/07/09 07:18:33;;;;;;;1.30;1.20;;;;;;;23.84;100.00;99455.64;104423;1253;60548;-57
2023/07/09 07:21:02;;;;;;;4.30;1.40;;;;;;;23.91;100.00;99455.09;104375;1257;74066;-56
2023/07/09 07:23:29;;;;;;;3.90;1.40;;;;;;;23.97;97.24;99451.20;104349;1260;69158;-57
2023/07/09 07:25:57;;;;;;;1.50;1.40;;;;;;;24.03;97.81;99450.79;104333;1259;71478;-56
2023/07/09 07:28:25;;;;;;;;;;;;;;;24.07;96.72;99450.75;104404;1260;60566;-57
2023/07/09 07:31:07;;;;;;;3.10;1.20;;;;;;;24.09;94.90;99453.03;104348;1265;60624;-56
2023/07/09 07:33:35;;;;;;;2.70;1.10;;;;;;;24.10;94.93;99448.67;104439;1258;73686;-57
2023/07/09 07:36:05;;;;;;;2.00;1.60;;;;;;;24.13;93.13;99454.51;104220;1272;69222;-58
2023/07/09 07:38:53;;;;;;;5.90;1.60;;;;;;;24.18;95.60;99452.66;104494;1272;72394;-57
2023/07/09 07:41:21;;;;;;;1.90;1.30;;;;;;;24.27;98.13;99458.57;104590;1253;60365;-58
2023/07/09 07:43:48;;;;;;;1.00;0.90;;;;;;;24.39;94.76;99452.52;104276;1258;60444;-57
2023/07/09 07:46:16;;;;;;;;;;;;;;;24.52;90.10;99446.46;105563;1253;73769;-58
2023/07/09 07:48:44;;;;;;;2.20;1.20;;;;;;;24.61;85.41;99448.64;108225;1252;69744;-56
2023/07/09 07:51:12;;;;;;;3.10;1.10;;;;;;;24.67;89.03;99449.63;105126;1256;72891;-56
2023/07/09 07:53:40;;;;;;;3.90;1.00;;;;;;;24.73;86.90;99446.64;104312;1260;60603;-56
2023/07/09 07:56:08;;;;;;;2.70;1.10;;;;;;;24.78;87.28;99444.11;104366;1267;60750;-56
2023/07/09 07:58:36;;;;;;;1.00;0.90;;;;;;;24.87;80.72;99441.25;104412;1257;74011;-56
2023/07/09 08:01:03;;;;;;;;;;;;;;;24.93;82.33;99443.15;104409;1263;70380;-56
2023/07/09 08:03:32;;;;;;;3.30;1.30;;;;;;;24.96;79.99;99440.77;104325;1259;72376;-55
2023/07/09 08:05:59;;;;;;;;;;;;;;;24.98;78.50;99442.40;104672;1253;60553;-56
2023/07/09 08:08:29;;;;;;;1.40;1.00;;;;;;;24.99;74.97;99435.27;104768;1262;60559;-57
2023/07/09 08:11:04;;;;;;;4.20;1.10;;;;;;;24.96;73.39;99429.74;104655;1257;73714;-57
2023/07/09 08:13:33;;;;;;;1.60;1.00;;;;;;;24.95;75.58;99427.52;104582;1259;69607;-56
2023/07/09 08:16:01;;;;;;;3.60;1.20;;;;;;;24.99;73.86;99434.84;104508;1257;72449;-56
2023/07/09 08:18:30;;;;;;;1.50;1.10;;;;;;;25.07;74.34;99430.48;104664;1258;60497;-56
2023/07/09 08:21:01;;;;;;;1.50;1.10;;;;;;;25.17;71.40;99433.44;104305;1253;60552;-56
2023/07/09 08:23:29;;;;;;;4.60;1.30;;;;;;;25.27;70.61;99428.91;104832;1263;73528;-56
2023/07/09 08:25:59;;;;;;;12.90;2.60;;;;;;;25.43;72.38;99436.03;104531;1266;69527;-56
2023/07/09 08:28:27;;;;;;;4.00;1.40;;;;;;;25.56;72.08;99435.66;104407;1260;72369;-56
2023/07/09 08:30:55;;;;;;;;;;;;;;;25.58;66.66;99432.34;104632;1259;60592;-56
2023/07/09 08:33:23;;;;;;;20.60;4.60;;;;;;;25.55;66.27;99431.30;104802;1257;60627;-57
2023/07/09 08:35:52;;;;;;;2.70;1.40;;;;;;;25.49;67.80;99440.75;108367;1253;74038;-57
2023/07/09 08:38:20;;;;;;;4.60;1.40;;;;;;;25.46;70.24;99435.16;108321;1253;68314;-57
2023/07/09 08:41:01;;;;;;;2.20;1.10;;;;;;;25.50;70.31;99436.30;108223;1253;72228;-58
2023/07/09 08:44:14;;;;;;;1.90;1.20;;;;;;;25.56;72.56;99431.67;108335;1253;59056;-57
2023/07/09 08:46:48;;;;;;;2.80;1.00;;;;;;;25.63;68.25;99430.63;108001;1253;60900;-59
2023/07/09 08:49:21;;;;;;;1.40;0.90;;;;;;;25.69;66.17;99429.41;108145;1253;74326;-59
2023/07/09 08:51:49;;;;;;;1.40;1.00;;;;;;;25.78;69.43;99426.45;107847;1259;69332;-59
2023/07/09 08:54:26;;;;;;;1.10;1.00;;;;;;;25.80;65.66;99428.20;107894;1254;72373;-58
2023/07/09 08:56:58;;;;;;;1.60;1.00;;;;;;;25.78;64.81;99424.30;108200;1253;60178;-57
2023/07/09 08:59:26;;;;;;;1.60;1.10;;;;;;;25.80;62.94;99434.77;108085;1253;60062;-56
2023/07/09 09:01:57;;;;;;;;;;;;;;;25.82;67.25;99433.59;108470;1254;74147;-56
2023/07/09 09:04:28;;;;;;;1.30;0.80;;;;;;;25.82;67.08;99436.05;108424;1254;69982;-57
2023/07/09 09:07:24;;;;;;;3.50;1.10;;;;;;;25.88;65.98;99431.27;108337;1254;72728;-57
2023/07/09 09:10:01;;;;;;;2.90;1.20;;;;;;;25.96;62.62;99432.91;108387;1254;59930;-57
2023/07/09 09:12:33;;;;;;;5.20;1.00;;;;;;;26.00;63.53;99425.09;108346;1258;59022;-56
2023/07/09 09:15:04;;;;;;;1.40;0.90;;;;;;;26.07;65.33;99427.55;108171;1253;73659;-56
2023/07/09 09:17:33;;;;;;;2.80;1.20;;;;;;;26.15;64.35;99429.77;108247;1257;70090;-57
2023/07/09 09:20:10;;;;;;;2.30;0.90;;;;;;;26.24;64.52;99426.42;108361;1254;72372;-57
2023/07/09 09:23:19;;;;;;;2.10;1.20;;;;;;;26.31;62.16;99429.56;108085;1254;59357;-57
2023/07/09 09:25:53;;;;;;;1.40;1.20;;;;;;;26.40;63.22;99429.27;108118;1254;59883;-58
2023/07/09 09:28:39;;;;;;;2.40;1.20;;;;;;;26.57;64.67;99424.30;108386;1253;72304;-57
2023/07/09 09:31:11;;;;;;;4.10;1.60;;;;;;;26.73;63.61;99422.27;108541;1256;69058;-57
2023/07/09 09:33:44;;;;;;;2.50;1.40;;;;;;;26.85;64.97;99422.09;108257;1254;72304;-57
2023/07/09 09:36:23;;;;;;;3.60;1.40;;;;;;;26.95;64.44;99424.86;108418;1252;59928;-57
2023/07/09 09:38:51;;;;;;;4.80;1.10;;;;;;;27.02;62.72;99418.30;108454;1252;59055;-57
2023/07/09 09:41:23;;;;;;;5.30;1.20;;;;;;;27.12;63.95;99417.34;108451;1253;73609;-57
2023/07/09 09:43:52;;;;;;;1.80;1.40;;;;;;;27.24;62.32;99412.42;108365;1257;69092;-57
2023/07/09 09:46:23;;;;;;;1.30;1.20;;;;;;;27.36;61.02;99411.19;108395;1254;72911;-58
2023/07/09 09:48:53;;;;;;;1.90;1.30;;;;;;;27.51;61.51;99416.30;108501;1254;59891;-57
2023/07/09 09:51:22;;;;;;;1.20;1.10;;;;;;;27.52;58.66;99418.28;108386;1254;59778;-56
2023/07/09 09:54:00;;;;;;;2.80;1.30;;;;;;;27.42;58.96;99418.76;108418;1255;74598;-57
2023/07/09 09:56:34;;;;;;;1.80;1.60;;;;;;;27.28;60.41;99418.74;108333;1254;69941;-56
2023/07/09 09:59:03;;;;;;;3.80;1.40;;;;;;;27.12;62.50;99422.16;108290;1254;72860;-57
2023/07/09 10:01:34;;;;;;;1.70;1.40;;;;;;;26.97;64.32;99420.16;108371;1256;59786;-57
2023/07/09 10:04:03;;;;;;;5.40;1.50;;;;;;;26.90;64.09;99416.13;108440;1254;59689;-56
2023/07/09 10:06:38;;;;;;;1.50;1.40;;;;;;;26.95;66.25;99414.20;108109;1254;74155;-57
2023/07/09 10:09:43;;;;;;;1.70;1.30;;;;;;;27.13;69.48;99414.00;108104;1254;69127;-57
2023/07/09 10:12:38;;;;;;;3.30;1.70;;;;;;;27.38;63.68;99402.63;108399;1253;72367;-57
2023/07/09 10:15:26;;;;;;;2.50;1.40;;;;;;;27.52;63.00;99403.46;108188;1254;60030;-58
2023/07/09 10:17:54;;;;;;;2.60;1.60;;;;;;;27.60;65.55;99404.95;108367;1254;59736;-57
2023/07/09 10:20:32;;;;;;;1.60;1.50;;;;;;;27.64;63.24;99406.31;108344;1253;73757;-57
2023/07/09 10:23:37;;;;;;;2.20;1.60;;;;;;;27.67;65.09;99404.90;108260;1252;69052;-58
2023/07/09 10:26:30;;;;;;;3.40;1.50;;;;;;;27.69;61.22;99406.53;108371;1252;72527;-57
2023/07/09 10:29:17;;;;;;;1.70;1.40;;;;;;;27.80;61.86;99402.78;107995;1254;59752;-58
2023/07/09 10:32:09;;;;;;;4.40;1.60;;;;;;;27.89;62.32;99400.05;108248;1254;59885;-56
2023/07/09 10:34:44;;;;;;;2.70;1.60;;;;;;;28.06;61.99;99398.58;108341;1252;73708;-59
2023/07/09 10:37:31;;;;;;;1.80;1.40;;;;;;;28.30;59.96;99399.26;108110;1253;69062;-57
2023/07/09 10:39:58;;;;;;;1.50;1.40;;;;;;;28.39;53.37;99392.10;108434;1254;72357;-57
2023/07/09 10:42:35;;;;;;;3.80;1.60;;;;;;;28.32;51.89;99396.84;108187;1254;60744;-57
2023/07/09 10:45:17;;;;;;;1.90;1.40;;;;;;;28.01;53.69;99398.67;108166;1254;60712;-57
2023/07/09 10:47:47;;;;;;;1.40;1.20;;;;;;;27.81;55.24;99396.09;107948;1254;73991;-57
2023/07/09 10:50:21;;;;;;;3.20;1.30;;;;;;;27.83;56.58;99397.60;107932;1254;69335;-57
2023/07/09 10:52:50;;;;;;;3.40;1.20;;;;;;;28.02;56.16;99390.54;107839;1254;73367;-57
2023/07/09 10:55:26;;;;;;;2.40;1.50;;;;;;;28.19;54.24;99390.36;108301;1252;60126;-58
2023/07/09 10:57:54;;;;;;;2.90;1.30;;;;;;;28.31;50.86;99393.58;107935;1251;58914;-57
2023/07/09 11:00:23;;;;;;;3.90;1.30;;;;;;;28.45;50.19;99393.89;108408;1251;74585;-58
2023/07/09 11:02:59;;;;;;;1.30;1.20;;;;;;;28.55;49.73;99384.63;108162;1253;69111;-57
2023/07/09 11:05:27;;;;;;;2.90;1.30;;;;;;;28.72;52.05;99388.44;108366;1254;72427;-57
2023/07/09 11:08:00;;;;;;;;;;;;;;;28.85;49.35;99386.59;108357;1254;59933;-58
2023/07/09 11:10:46;;;;;;;1.50;1.10;;;;;;;28.87;49.28;99382.66;108455;1254;59505;-58
2023/07/09 11:13:21;;;;;;;3.50;1.30;;;;;;;28.78;48.59;99387.92;108439;1252;72746;-58
2023/07/09 11:15:50;;;;;;;1.50;1.30;;;;;;;28.62;49.53;99384.11;108039;1252;69753;-58
2023/07/09 11:18:30;;;;;;;1.60;1.30;;;;;;;28.49;47.69;99389.16;107998;1253;72986;-58
2023/07/09 11:21:03;;;;;;;1.60;1.10;;;;;;;28.44;48.53;99389.30;108396;1253;59766;-57
2023/07/09 11:23:43;;;;;;;1.90;1.40;;;;;;;28.33;48.01;99388.84;108485;1254;60079;-58
2023/07/09 11:26:14;;;;;;;2.10;1.40;;;;;;;28.23;47.52;99387.50;108313;1254;74500;-58
2023/07/09 11:28:46;;;;;;;2.10;1.60;;;;;;;28.02;47.63;99386.08;108354;1253;69343;-57
2023/07/09 11:31:20;;;;;;;1.90;1.30;;;;;;;27.78;47.91;99394.95;108318;1252;72649;-57
2023/07/09 11:33:56;;;;;;;2.00;1.60;;;;;;;27.59;49.91;99390.25;108497;1253;60424;-56
2023/07/09 11:36:26;;;;;;;2.30;1.40;;;;;;;27.50;51.27;99393.99;108328;1254;60678;-57
2023/07/09 11:38:53;;;;;;;1.70;1.50;;;;;;;27.66;53.81;99391.59;108341;1254;73619;-57
2023/07/09 11:41:28;;;;;;;2.00;1.30;;;;;;;27.91;52.19;99382.00;108124;1258;69269;-57
2023/07/09 11:44:18;;;;;;;2.30;1.40;;;;;;;28.18;49.96;99380.88;108311;1254;73457;-57
2023/07/09 11:47:17;;;;;;;2.90;1.20;;;;;;;28.35;48.75;99382.85;108315;1254;59808;-56